x

South Santa Rosa Is. Ca (46069) Wave Buoy

3:50 - Fri 24th Mar 2017 All times are PDT. -7 hours from GMT.

  • Sig Wave height 7.2ft
  • Swell Direction
  • Peak Period 16s
  • Average Period 7s
  • Wind
    18mph, 22mph gusts
  • Sea Temp 57°f
  • Aire Temp 55°f
  • Sea Pressure 1023.1mb
  • South Santa Rosa Is. Ca
  • South Santa Rosa Is. Ca

More Historic Weather Station data

Upgrade to MSW Pro to gain access to the past 30 days of data for over 8000 Wavebouys and Weather Stations around the globe.

Join Pro

Comparision Forecast

View Surf forecast
   
vie 03/24 3:50 7ft 16s 7s 18 22 mph 1023.1mb 57f 55f
2:50 8.5ft 16s 7s 22 27 mph 1023.1mb 57f 55f
1:50 8ft 14s 7s 25 29 mph 1022.8mb 57f 55f
12:50 8ft 15s 7s 25 29 mph 1022.9mb 57f 55f
jue 03/23 11:50 9ft 14s 7s 25 27 mph 1023.1mb 57f 55f
10:50 10ft 10s 7s 25 29 mph 1023mb 57f 55f
9:50 10ft 6s 7s 27 31 mph 1023mb 57f 55f
8:50 10.5ft 6s 7s 27 31 mph 1022.7mb 57f 55f
7:50 10ft 7s 7s 29 34 mph 1022.1mb 57f 55f
6:50 10ft 10s 6s 29 36 mph 1021.6mb 57f 55f
5:50 9.5ft 10s 7s 27 31 mph 1021mb 57f 56f
4:50 10ft 10s 7s 29 34 mph 1021.3mb 57f 55f
3:50 9ft 11s 7s 22 29 mph 1021.3mb 57f 55f
2:50 11ft 11s 7s 27 31 mph 1021.7mb 57f 55f
1:50 10ft 11s 7s 29 34 mph 1022mb 57f 55f
12:50 10ft 11s 7s 25 29 mph 1022.8mb 57f 55f
11:50 10ft 11s 7s 27 31 mph 1022.6mb 57f 55f
10:50 10.5ft 11s 7s 25 31 mph 1022.5mb 56f 55f
9:50 11ft 11s 7s 25 31 mph 1021.9mb 56f 55f
8:50 10.5ft 11s 7s 27 31 mph 1020.8mb 56f 55f
7:50 10ft 9s 7s 25 31 mph 1020.2mb 56f 55f
6:50 11ft 8s 7s 29 36 mph 1019.8mb 56f 55f
5:50 11ft 8s 7s 29 34 mph 1019.4mb 56f 55f
4:50 11.5ft 7s 7s 31 38 mph 1019.4mb 56f 55f
3:50 10.5ft 7s 7s 31 36 mph 1019.4mb 56f 55f
2:50 11ft 7s 7s 29 36 mph 1019.5mb 56f 55f
1:50 10ft 7s 7s 29 36 mph 1019.5mb 56f 55f
12:50 10ft 7s 7s 29 36 mph 1019.1mb 57f 55f
mié 03/22 11:50 9ft 11s 7s 29 38 mph 1018.7mb 57f 56f
10:50 9ft 12s 7s 29 36 mph 1018.3mb 57f 56f
9:50 9.5ft 11s 7s 27 34 mph 1018mb 57f 56f
8:50 9ft 12s 7s 27 34 mph 1017.6mb 57f 56f
7:50 8ft 11s 7s 27 31 mph 1017.1mb 57f 56f
6:50 8ft 11s 7s 22 27 mph 1017mb 58f 57f
5:50 7.5ft 12s 7s 22 27 mph 1016.8mb 58f 57f
4:50 7ft 13s 7s 22 25 mph 1016.5mb 58f 57f
3:50 6ft 13s 8s 18 22 mph 1017.1mb 58f 58f
2:50 4.5ft 16s 8s 18 20 mph 1016.9mb 58f 58f
1:50 4.5ft 15s 8s 13 18 mph 1017.7mb 58f 58f
12:50 3.5ft 16s 7s 11 13 mph 1017.8mb 58f 58f
11:50 4.5ft 16s 9s 11 13 mph 1018.5mb 58f 58f
10:50 4ft 16s 7s 9
mph
1018.7mb 58f 58f
9:50 4.5ft 16s 8s 7
mph
1018.2mb 58f 58f
8:50 4ft 16s 7s 9 11 mph 1018.1mb 57f 57f
7:50 4.5ft 16s 8s 9 11 mph 1017.5mb 57f 57f
6:50 4.5ft 16s 7s 9 11 mph 1017.3mb 57f 57f
5:50 4.5ft 16s 7s 9
mph
1017mb 57f 56f
4:50 4.5ft 15s 7s 13 16 mph 1016.8mb 57f 56f
3:50 4.5ft 16s 7s 11 13 mph 1016.9mb 57f 56f
2:50 4.5ft 16s 7s 13 16 mph 1017.3mb 57f 57f
1:50 4.5ft 16s 7s 11
mph
1017.4mb 57f 57f
12:50 4.5ft 16s 7s 9 11 mph 1017.6mb 57f 57f
mar 03/21 11:50 4.5ft 7s 6s 9
mph
1017.6mb 58f 57f
10:50 4.5ft 10s 7s 9 11 mph 1017.9mb 58f 57f
9:50 4.5ft 17s 6s 11 13 mph 1017.7mb 58f 57f
8:50 4.5ft 15s 7s 11 13 mph 1017.4mb 58f 57f
7:50 4.5ft 11s 6s 9 11 mph 1016.9mb 58f 58f
6:50 4.5ft 17s 6s 7 9 mph 1016.4mb 59f 58f
5:50 4.5ft 17s 6s 2 4 mph 1016.2mb 59f 58f
4:50 4.5ft 16s 6s 4
mph
1016.4mb 59f 58f
3:50 4.5ft 9s 6s 4 7 mph 1016.7mb 58f 59f
2:50 4.5ft 16s 6s 7 9 mph 1016.8mb 58f 59f
1:50 4.5ft 11s 6s 7 9 mph 1016.9mb 58f 59f
12:50 4.5ft 15s 5s 9 11 mph 1017.1mb 57f 58f
11:50 4.5ft 11s 5s 11 13 mph 1017.4mb 57f 58f
10:50 4.5ft 10s 5s 13 16 mph 1017.1mb 57f 58f
9:50 4ft 10s 5s 16 20 mph 1016.7mb 57f 58f
8:50 4.5ft 11s 5s 16 18 mph 1016.7mb 57f 58f
7:50 4ft 10s 6s 13 16 mph 1016.3mb 58f 58f
6:50 3.5ft 11s 6s 13 16 mph 1016.3mb 58f 58f
5:50 3.5ft 11s 7s 11 13 mph 1016.4mb 58f 58f
4:50 3.5ft 11s 6s 13 16 mph 1015.6mb 58f 58f
3:50 3.5ft 11s 7s 16 18 mph 1016.8mb 58f 58f
2:50 3ft 11s 7s 11 13 mph 1017.6mb 58f 59f
1:50 3ft 11s 8s 11 13 mph 1017.6mb 58f 58f
12:50 3.5ft 16s 8s 11 13 mph 1017.5mb 58f 58f
lun 03/20 11:50 3.5ft 11s 9s 9 11 mph 1018.2mb 58f 58f
10:50 3.5ft 11s 9s 9
mph
1018.7mb 58f 58f
9:50 3.5ft 12s 9s 9 11 mph 1018.7mb 58f 58f
8:50 3.5ft 12s 9s 9 11 mph 1018.2mb 58f 58f
7:50 3.5ft 11s 9s 9
mph
1018.1mb 58f 58f
6:50 3.5ft 11s 9s 7 9 mph 1018mb 58f 58f
5:50 4.5ft 12s 9s 7
mph
1018.2mb 58f 58f
4:50 4ft 12s 9s 7 9 mph 1018.3mb 58f 58f
3:50 4.5ft 12s 9s 7
mph
1018.7mb 58f 58f
2:50 4ft 12s 9s 7
mph
1019mb 58f 58f
1:50 4.5ft 12s 9s 7 9 mph 1019.4mb 58f 58f
12:50 5ft 13s 10s 7 9 mph 1019.7mb 58f 57f